Time;durP1;ratioP1;P1;durP2;ratioP2;P2;SDS_P1;SDS_P2;PMS_P1;PMS_P2;Temp;Humidity;BMP_temperature;BMP_pressure;BME280_temperature;BME280_humidity;BME280_pressure;Samples;Min_cycle;Max_cycle;Signal;HPM_P1;HPM_P2
2023/05/07 00:02:19;;;;;;;;;4.00;4.00;;;;;21.39;44.91;101627.66;110236;1254;18803;-43
2023/05/07 00:04:46;;;;;;;;;5.00;5.00;;;;;21.38;44.94;101628.82;110268;1266;19642;-41
2023/05/07 00:07:14;;;;;;;;;5.00;4.00;;;;;21.39;45.02;101623.34;110237;1249;20550;-41
2023/05/07 00:09:41;;;;;;;;;6.00;6.00;;;;;21.39;44.90;101623.67;110254;1260;20006;-40
2023/05/07 00:12:08;;;;;;;;;4.00;4.00;;;;;21.38;44.87;101625.01;110278;1250;21643;-40
2023/05/07 00:14:35;;;;;;;;;4.50;4.00;;;;;21.39;45.02;101625.54;110243;1265;20076;-41
2023/05/07 00:17:03;;;;;;;;;5.00;4.00;;;;;21.38;44.80;101622.52;110197;1250;22962;-41
2023/05/07 00:19:30;;;;;;;;;4.00;4.00;;;;;21.39;44.85;101625.52;110269;1250;20733;-41
2023/05/07 00:21:58;;;;;;;;;4.00;4.00;;;;;21.39;44.84;101626.20;110248;1265;18413;-41
2023/05/07 00:24:25;;;;;;;;;4.00;3.00;;;;;21.39;44.99;101623.98;110217;1251;20133;-43
2023/05/07 00:26:53;;;;;;;;;4.00;4.00;;;;;21.39;44.77;101622.38;110264;1265;20733;-47
2023/05/07 00:29:20;;;;;;;;;4.50;4.50;;;;;21.39;44.88;101617.71;110218;1265;18432;-40
2023/05/07 00:31:48;;;;;;;;;4.00;4.00;;;;;21.39;44.83;101618.94;110260;1265;18849;-41
2023/05/07 00:34:15;;;;;;;;;4.00;4.00;;;;;21.39;44.83;101621.49;110272;1265;19371;-40
2023/05/07 00:36:42;;;;;;;;;7.00;7.00;;;;;21.39;44.83;101620.09;110256;1265;18437;-42
2023/05/07 00:39:10;;;;;;;;;2.00;2.00;;;;;21.38;44.61;101621.97;110264;1265;20100;-40
2023/05/07 00:41:37;;;;;;;;;2.00;2.00;;;;;21.38;44.82;101626.33;110279;1265;19553;-40
2023/05/07 00:44:04;;;;;;;;;3.00;2.00;;;;;21.39;44.93;101628.62;110248;1265;18418;-41
2023/05/07 00:46:32;;;;;;;;;3.33;3.33;;;;;21.38;44.85;101632.46;110129;1265;126200;-40
2023/05/07 00:48:59;;;;;;;;;4.00;4.00;;;;;21.39;44.78;101635.81;110258;1266;22680;-40
2023/05/07 00:51:26;;;;;;;;;4.00;4.00;;;;;21.39;44.72;101637.11;110273;1260;19512;-40
2023/05/07 00:53:53;;;;;;;;;2.00;2.00;;;;;21.39;44.90;101637.02;110233;1250;20142;-40
2023/05/07 00:56:21;;;;;;;;;5.00;4.00;;;;;21.39;44.80;101641.16;110251;1250;21970;-43
2023/05/07 00:58:48;;;;;;;;;2.00;2.00;;;;;21.39;44.82;101642.97;110249;1265;18609;-40
2023/05/07 01:01:16;;;;;;;;;2.00;2.00;;;;;21.39;44.73;101643.17;110240;1265;18626;-41
2023/05/07 01:03:43;;;;;;;;;4.50;4.00;;;;;21.38;44.85;101644.50;110252;1265;19501;-40
2023/05/07 01:06:12;;;;;;;;;2.00;2.00;;;;;21.38;44.91;101646.38;110286;1257;18314;-40
2023/05/07 01:08:40;;;;;;;;;4.00;2.00;;;;;21.38;44.82;101645.94;110251;1251;20039;-40
2023/05/07 01:11:07;;;;;;;;;7.50;5.00;;;;;21.38;44.71;101642.48;110256;1251;20845;-43
2023/05/07 01:13:34;;;;;;;;;2.67;2.67;;;;;21.38;44.83;101648.39;110270;1250;18816;-40
2023/05/07 01:16:02;;;;;;;;;4.00;4.00;;;;;21.37;44.80;101651.29;110270;1265;18608;-39
2023/05/07 01:18:29;;;;;;;;;5.00;4.00;;;;;21.38;44.87;101652.85;110286;1266;19348;-39
2023/05/07 01:20:57;;;;;;;;;4.00;4.00;;;;;21.38;44.62;101651.77;110280;1251;18326;-40
2023/05/07 01:23:25;;;;;;;;;4.00;4.00;;;;;21.37;44.64;101648.83;110247;1249;19947;-40
2023/05/07 01:25:52;;;;;;;;;3.00;3.00;;;;;21.37;44.80;101651.70;110259;1250;22801;-40
2023/05/07 01:28:19;;;;;;;;;4.00;4.00;;;;;21.37;44.94;101648.97;110296;1250;20921;-41
2023/05/07 01:30:47;;;;;;;;;2.00;2.00;;;;;21.36;44.77;101651.75;110202;1251;18894;-41
2023/05/07 01:33:14;;;;;;;;;3.00;3.00;;;;;21.37;44.71;101654.29;110196;1260;20766;-41
2023/05/07 01:35:41;;;;;;;;;4.00;4.00;;;;;21.37;44.66;101654.66;110246;1265;18702;-40
2023/05/07 01:38:09;;;;;;;;;4.00;4.00;;;;;21.36;44.72;101653.26;110260;1249;18632;-40
2023/05/07 01:40:36;;;;;;;;;4.00;4.00;;;;;21.36;44.67;101657.08;110236;1251;20824;-39
2023/05/07 01:43:03;;;;;;;;;4.00;4.00;;;;;21.36;44.53;101654.55;110244;1251;19626;-42
2023/05/07 01:45:31;;;;;;;;;5.00;4.50;;;;;21.35;44.80;101659.69;110284;1251;20100;-40
2023/05/07 01:47:58;;;;;;;;;4.00;3.00;;;;;21.35;44.68;101657.16;110257;1251;20769;-40
2023/05/07 01:50:26;;;;;;;;;3.00;3.00;;;;;21.35;44.63;101655.72;110257;1265;18408;-42
2023/05/07 01:52:53;;;;;;;;;4.00;4.00;;;;;21.34;44.63;101655.24;110288;1266;18907;-40
2023/05/07 01:55:20;;;;;;;;;4.00;4.00;;;;;21.34;44.74;101654.52;110270;1265;20686;-40
2023/05/07 01:57:47;;;;;;;;;4.00;4.00;;;;;21.35;44.61;101655.70;110295;1265;18411;-40
2023/05/07 02:00:15;;;;;;;;;2.00;2.00;;;;;21.35;44.60;101657.36;110210;1257;22575;-40
2023/05/07 02:02:42;;;;;;;;;2.00;2.00;;;;;21.36;44.74;101661.10;110286;1251;20743;-40
2023/05/07 02:05:09;;;;;;;;;2.00;2.00;;;;;21.36;44.64;101662.02;110258;1251;21389;-41
2023/05/07 02:07:37;;;;;;;;;7.00;2.00;;;;;21.35;44.69;101666.77;110266;1251;20112;-40
2023/05/07 02:10:04;;;;;;;;;1.00;1.00;;;;;21.35;44.78;101665.87;110250;1251;22605;-40
2023/05/07 02:12:32;;;;;;;;;4.00;4.00;;;;;21.35;44.64;101666.64;110251;1260;19574;-40
2023/05/07 02:14:59;;;;;;;;;2.00;2.00;;;;;21.36;44.61;101675.45;110288;1265;20973;-40
2023/05/07 02:17:27;;;;;;;;;2.00;2.00;;;;;21.36;44.76;101669.41;110179;1265;19510;-40
2023/05/07 02:19:54;;;;;;;;;2.00;2.00;;;;;21.35;44.79;101671.48;110203;1265;18525;-40
2023/05/07 02:22:21;;;;;;;;;2.00;2.00;;;;;21.34;44.58;101671.43;110199;1265;18620;-40
2023/05/07 02:24:49;;;;;;;;;2.00;2.00;;;;;21.34;44.75;101673.60;110204;1257;20666;-40
2023/05/07 02:27:16;;;;;;;;;3.33;2.00;;;;;21.35;44.52;101677.58;110212;1251;22679;-40
2023/05/07 02:29:43;;;;;;;;;2.00;2.00;;;;;21.35;44.58;101679.02;110228;1265;18619;-40
2023/05/07 02:32:11;;;;;;;;;4.00;4.00;;;;;21.35;44.71;101684.58;110236;1250;19329;-40
2023/05/07 02:34:38;;;;;;;;;2.00;2.00;;;;;21.35;44.60;101689.35;110228;1265;22838;-40
2023/05/07 02:37:05;;;;;;;;;5.00;2.00;;;;;21.35;44.75;101691.56;110297;1251;19974;-40
2023/05/07 02:39:33;;;;;;;;;2.00;2.00;;;;;21.35;44.59;101690.95;110254;1265;20827;-40
2023/05/07 02:42:01;;;;;;;;;5.00;4.00;;;;;21.35;44.47;101688.66;110237;1265;18603;-40
2023/05/07 02:44:31;;;;;;;;;2.00;2.00;;;;;21.34;44.69;101691.60;110267;1260;20138;-40
2023/05/07 02:46:58;;;;;;;;;2.00;1.00;;;;;21.34;44.61;101691.98;110272;1251;20752;-40
2023/05/07 02:49:25;;;;;;;;;2.00;2.00;;;;;21.34;44.46;101691.48;110241;1251;19616;-41
2023/05/07 02:51:53;;;;;;;;;2.00;2.00;;;;;21.34;44.66;101694.19;110187;1251;20201;-41
2023/05/07 02:54:20;;;;;;;;;2.00;2.00;;;;;21.33;44.51;101699.17;110123;1251;20769;-40
2023/05/07 02:56:47;;;;;;;;;2.00;2.00;;;;;21.33;44.60;101701.39;110224;1265;19886;-41
2023/05/07 02:59:15;;;;;;;;;2.00;2.00;;;;;21.33;44.51;101701.21;110249;1251;20027;-43
2023/05/07 03:01:43;;;;;;;;;4.00;2.00;;;;;21.33;44.67;101700.10;110252;1259;20688;-41
2023/05/07 03:04:11;;;;;;;;;2.00;2.00;;;;;21.32;44.64;101697.98;110277;1249;22293;-40
2023/05/07 03:06:38;;;;;;;;;2.00;2.00;;;;;21.33;44.67;101696.11;110267;1251;20004;-41
2023/05/07 03:09:06;;;;;;;;;4.00;4.00;;;;;21.33;44.58;101699.41;110251;1251;22722;-41
2023/05/07 03:11:33;;;;;;;;;3.00;3.00;;;;;21.32;44.68;101701.59;110261;1260;19710;-41
2023/05/07 03:14:00;;;;;;;;;2.00;2.00;;;;;21.32;44.47;101698.59;110275;1265;18608;-40
2023/05/07 03:16:28;;;;;;;;;4.00;4.00;;;;;21.31;44.62;101702.98;110236;1251;20753;-41
2023/05/07 03:18:55;;;;;;;;;2.00;2.00;;;;;21.32;44.63;101702.58;110255;1250;20947;-41
2023/05/07 03:21:22;;;;;;;;;2.00;2.00;;;;;21.33;44.45;101708.48;110264;1265;19653;-41
2023/05/07 03:23:49;;;;;;;;;2.00;2.00;;;;;21.33;44.46;101707.19;110160;1265;22137;-41
2023/05/07 03:26:17;;;;;;;;;2.00;2.00;;;;;21.32;44.49;101709.05;110226;1251;19611;-41
2023/05/07 03:28:44;;;;;;;;;2.00;2.00;;;;;21.32;44.41;101709.44;110266;1265;22290;-37
2023/05/07 03:31:11;;;;;;;;;2.00;2.00;;;;;21.32;44.65;101711.45;110242;1265;19574;-40
2023/05/07 03:33:39;;;;;;;;;2.33;1.67;;;;;21.32;44.59;101714.34;110251;1265;18524;-40
2023/05/07 03:36:06;;;;;;;;;2.00;2.00;;;;;21.32;44.35;101718.36;110283;1250;20079;-40
2023/05/07 03:38:33;;;;;;;;;2.00;2.00;;;;;21.32;44.58;101718.33;110252;1250;20754;-40
2023/05/07 03:41:01;;;;;;;;;2.00;2.00;;;;;21.32;44.53;101719.86;110271;1257;19821;-40
2023/05/07 03:43:28;;;;;;;;;1.00;1.00;;;;;21.33;44.66;101723.70;110267;1251;20153;-40
2023/05/07 03:45:55;;;;;;;;;3.33;3.33;;;;;21.33;44.46;101726.14;110241;1250;21741;-45
2023/05/07 03:48:23;;;;;;;;;4.00;2.00;;;;;21.33;44.53;101725.73;110132;1266;22031;-40
2023/05/07 03:50:50;;;;;;;;;2.00;2.00;;;;;21.33;44.54;101728.62;110255;1265;18559;-44
2023/05/07 03:53:17;;;;;;;;;2.00;2.00;;;;;21.33;44.41;101730.26;110254;1265;19374;-43
2023/05/07 03:55:45;;;;;;;;;2.00;2.00;;;;;21.33;44.58;101734.42;110258;1251;19657;-38
2023/05/07 03:58:12;;;;;;;;;2.00;2.00;;;;;21.33;44.40;101734.77;110249;1260;20212;-42
2023/05/07 04:00:40;;;;;;;;;2.00;2.00;;;;;21.34;44.35;101736.91;110238;1250;21909;-42
2023/05/07 04:03:07;;;;;;;;;2.00;2.00;;;;;21.33;44.32;101739.36;110262;1250;19624;-41
2023/05/07 04:05:35;;;;;;;;;2.00;2.00;;;;;21.34;44.57;101744.00;110263;1259;19927;-40
2023/05/07 04:08:02;;;;;;;;;4.00;4.00;;;;;21.33;44.43;101740.96;110245;1265;22730;-40
2023/05/07 04:10:30;;;;;;;;;2.00;2.00;;;;;21.33;44.46;101742.64;110259;1257;18738;-40
2023/05/07 04:12:57;;;;;;;;;2.00;2.00;;;;;21.34;44.22;101750.17;110262;1251;20058;-40
2023/05/07 04:15:25;;;;;;;;;2.00;2.00;;;;;21.32;44.44;101756.71;110235;1251;20772;-40
2023/05/07 04:17:52;;;;;;;;;2.00;2.00;;;;;21.32;44.31;101760.13;110281;1259;19163;-41
2023/05/07 04:20:19;;;;;;;;;2.00;2.00;;;;;21.33;44.54;101762.81;110257;1260;19980;-40
2023/05/07 04:22:47;;;;;;;;;3.00;2.00;;;;;21.33;44.34;101763.40;110257;1254;20749;-39
2023/05/07 04:25:15;;;;;;;;;1.67;1.67;;;;;21.33;44.27;101763.56;110269;1251;19677;-40
2023/05/07 04:27:42;;;;;;;;;2.00;2.00;;;;;21.34;44.43;101771.27;110264;1266;18630;-41
2023/05/07 04:30:09;;;;;;;;;2.00;2.00;;;;;21.34;44.43;101771.83;110240;1260;21915;-39
2023/05/07 04:32:37;;;;;;;;;2.00;2.00;;;;;21.33;44.55;101769.84;110287;1251;19585;-40
2023/05/07 04:35:04;;;;;;;;;2.00;2.00;;;;;21.33;44.45;101771.13;110271;1250;21239;-40
2023/05/07 04:37:32;;;;;;;;;2.00;2.00;;;;;21.33;44.36;101781.73;110260;1266;19246;-40
2023/05/07 04:40:00;;;;;;;;;4.00;2.00;;;;;21.32;44.29;101786.54;110253;1251;19737;-40
2023/05/07 04:42:27;;;;;;;;;2.00;2.00;;;;;21.33;44.45;101787.02;110245;1265;18607;-40
2023/05/07 04:44:55;;;;;;;;;2.00;2.00;;;;;21.34;44.32;101788.70;110287;1251;20926;-40
2023/05/07 04:47:22;;;;;;;;;2.00;2.00;;;;;21.34;44.17;101789.39;110263;1265;18366;-43
2023/05/07 04:49:49;;;;;;;;;2.00;2.00;;;;;21.35;44.22;101793.48;110297;1251;20030;-40
2023/05/07 04:52:17;;;;;;;;;2.00;2.00;;;;;21.36;44.25;101795.09;110235;1250;20737;-41
2023/05/07 04:54:44;;;;;;;;;2.00;2.00;;;;;21.36;44.31;101790.70;110251;1251;19665;-41
2023/05/07 04:57:11;;;;;;;;;3.33;3.33;;;;;21.37;44.45;101789.38;110266;1265;21002;-40
2023/05/07 04:59:39;;;;;;;;;1.50;1.50;;;;;21.36;44.40;101794.39;110248;1254;22793;-41
2023/05/07 05:02:06;;;;;;;;;2.00;2.00;;;;;21.36;44.46;101792.48;110254;1265;19862;-43
2023/05/07 05:04:33;;;;;;;;;1.00;1.00;;;;;21.38;44.57;101793.23;110259;1265;19864;-41
2023/05/07 05:07:01;;;;;;;;;2.00;2.00;;;;;21.38;44.68;101799.79;110244;1265;19338;-40
2023/05/07 05:09:28;;;;;;;;;2.00;2.00;;;;;21.39;44.72;101802.07;110241;1265;19850;-41
2023/05/07 05:11:55;;;;;;;;;2.00;2.00;;;;;21.39;44.68;101801.52;110282;1265;20153;-41
2023/05/07 05:14:23;;;;;;;;;2.00;2.00;;;;;21.39;44.68;101802.96;110178;1265;20712;-41
2023/05/07 05:16:50;;;;;;;;;2.00;2.00;;;;;21.39;44.67;101800.17;110171;1260;19680;-40
2023/05/07 05:19:17;;;;;;;;;2.00;2.00;;;;;21.41;44.78;101811.34;110187;1251;21005;-40
2023/05/07 05:21:45;;;;;;;;;2.00;2.00;;;;;21.41;44.84;101807.48;110195;1251;20783;-40
2023/05/07 05:24:12;;;;;;;;;2.00;2.00;;;;;21.40;44.58;101813.00;110261;1250;19609;-40
2023/05/07 05:26:39;;;;;;;;;2.00;2.00;;;;;21.42;44.70;101811.37;110276;1250;20011;-40
2023/05/07 05:29:07;;;;;;;;;2.00;2.00;;;;;21.45;44.79;101813.02;110254;1265;21833;-40
2023/05/07 05:31:35;;;;;;;;;2.67;2.00;;;;;21.48;44.89;101812.77;110204;1265;18232;-40
2023/05/07 05:34:02;;;;;;;;;4.00;2.00;;;;;21.48;45.16;101813.64;110251;1265;18573;-40
2023/05/07 05:36:30;;;;;;;;;2.00;2.00;;;;;21.49;45.19;101817.98;110249;1249;19574;-40
2023/05/07 05:38:57;;;;;;;;;3.00;3.00;;;;;21.51;45.03;101822.08;110226;1250;22171;-43
2023/05/07 05:41:25;;;;;;;;;4.00;2.00;;;;;21.52;45.25;101823.98;110222;1265;18645;-41
2023/05/07 05:43:53;;;;;;;;;2.00;2.00;;;;;21.52;45.41;101822.14;110273;1265;19382;-41
2023/05/07 05:46:20;;;;;;;;;3.00;3.00;;;;;21.52;45.38;101827.38;110240;1250;19681;-40
2023/05/07 05:48:48;;;;;;;;;4.00;2.00;;;;;21.53;45.73;101827.13;110227;1250;20016;-41
2023/05/07 05:51:15;;;;;;;;;2.00;2.00;;;;;21.53;45.57;101826.41;110248;1265;19411;-41
2023/05/07 05:53:42;;;;;;;;;2.00;2.00;;;;;21.54;45.47;101827.27;110259;1265;18475;-42
2023/05/07 05:56:10;;;;;;;;;2.00;2.00;;;;;21.55;45.77;101833.98;110228;1257;18867;-45
2023/05/07 05:58:37;;;;;;;;;2.00;2.00;;;;;21.55;45.69;101834.71;110247;1257;21124;-41
2023/05/07 06:01:05;;;;;;;;;4.00;4.00;;;;;21.57;45.59;101836.21;110234;1265;18397;-40
2023/05/07 06:03:33;;;;;;;;;4.00;4.00;;;;;21.57;45.75;101835.96;110261;1265;18637;-40
2023/05/07 06:06:00;;;;;;;;;2.00;2.00;;;;;21.58;45.49;101838.97;110139;1265;19382;-40
2023/05/07 06:08:28;;;;;;;;;2.00;2.00;;;;;21.61;45.85;101837.97;110221;1265;19515;-40
2023/05/07 06:10:55;;;;;;;;;2.00;2.00;;;;;21.64;45.75;101837.48;110261;1251;20074;-40
2023/05/07 06:13:22;;;;;;;;;3.00;2.00;;;;;21.66;45.74;101837.54;110280;1251;19407;-41
2023/05/07 06:15:50;;;;;;;;;4.00;2.00;;;;;21.70;45.93;101836.75;110217;1250;22207;-40
2023/05/07 06:18:17;;;;;;;;;4.00;4.00;;;;;21.74;45.94;101836.30;110245;1266;22726;-41
2023/05/07 06:20:44;;;;;;;;;2.00;2.00;;;;;21.76;46.17;101839.14;110266;1251;20788;-40
2023/05/07 06:23:12;;;;;;;;;2.00;2.00;;;;;21.78;46.25;101841.91;110241;1250;18787;-39
2023/05/07 06:25:39;;;;;;;;;2.00;2.00;;;;;21.77;46.27;101838.36;110226;1251;20184;-40
2023/05/07 06:28:08;;;;;;;;;4.00;4.00;;;;;21.77;46.05;101839.14;110246;1249;20777;-40
2023/05/07 06:30:35;;;;;;;;;5.00;2.00;;;;;21.77;45.99;101841.43;110196;1265;18441;-41
2023/05/07 06:33:03;;;;;;;;;2.00;2.00;;;;;21.79;46.07;101845.80;110257;1250;19927;-39
2023/05/07 06:35:30;;;;;;;;;4.00;4.00;;;;;21.83;46.07;101846.86;110281;1266;19350;-40
2023/05/07 06:37:57;;;;;;;;;4.00;2.00;;;;;21.85;46.16;101850.05;110259;1251;19644;-41
2023/05/07 06:40:24;;;;;;;;;4.00;4.00;;;;;21.86;46.20;101849.39;110251;1251;20186;-40
2023/05/07 06:42:52;;;;;;;;;5.00;5.00;;;;;21.88;46.17;101849.80;110248;1251;21938;-42
2023/05/07 06:45:19;;;;;;;;;4.00;4.00;;;;;21.88;46.00;101848.83;110275;1260;19485;-40
2023/05/07 06:47:46;;;;;;;;;;;;;;;21.90;45.96;101854.38;110253;1259;21237;-40
2023/05/07 06:50:15;;;;;;;;;4.00;4.00;;;;;21.89;45.83;101852.55;110272;1265;19374;-42
2023/05/07 06:52:43;;;;;;;;;7.00;7.00;;;;;21.76;44.77;101854.50;110231;1251;19284;-41
2023/05/07 06:55:11;;;;;;;;;5.00;5.00;;;;;21.63;43.76;101856.19;110246;1265;18653;-40
2023/05/07 06:57:38;;;;;;;;;8.00;5.00;;;;;21.66;43.90;101858.64;110250;1265;19356;-41
2023/05/07 07:00:06;;;;;;;;;4.33;4.33;;;;;21.72;43.94;101857.10;110253;1251;19537;-42
2023/05/07 07:02:34;;;;;;;;;4.00;4.00;;;;;21.78;44.05;101865.00;110228;1251;20074;-40
2023/05/07 07:05:01;;;;;;;;;3.00;3.00;;;;;21.82;44.30;101863.44;110226;1266;19399;-41
2023/05/07 07:07:28;;;;;;;;;4.00;4.00;;;;;21.87;44.34;101860.48;110257;1251;21007;-40
2023/05/07 07:09:56;;;;;;;;;7.00;5.00;;;;;21.90;44.31;101865.29;110253;1251;20082;-42
2023/05/07 07:12:24;;;;;;;;;4.50;4.00;;;;;21.91;44.53;101868.23;110233;1260;22151;-40
2023/05/07 07:14:52;;;;;;;;;5.00;5.00;;;;;21.93;44.69;101861.98;110288;1251;18276;-40
2023/05/07 07:17:19;;;;;;;;;4.00;4.00;;;;;21.95;44.65;101863.48;110234;1251;20047;-39
2023/05/07 07:19:46;;;;;;;;;4.00;4.00;;;;;21.98;44.89;101865.52;110224;1251;20810;-41
2023/05/07 07:22:14;;;;;;;;;2.00;2.00;;;;;21.99;45.05;101863.41;110261;1251;19628;-41
2023/05/07 07:24:41;;;;;;;;;4.00;4.00;;;;;22.01;44.97;101867.16;110231;1265;18620;-40
2023/05/07 07:27:08;;;;;;;;;4.00;4.00;;;;;22.03;45.20;101875.18;110214;1251;20805;-41
2023/05/07 07:29:36;;;;;;;;;2.00;2.00;;;;;22.04;45.20;101877.06;110251;1251;19642;-44
2023/05/07 07:32:03;;;;;;;;;8.00;7.00;;;;;22.01;45.04;101872.41;110201;1265;18813;-41
2023/05/07 07:34:30;;;;;;;;;8.00;8.00;;;;;21.92;44.30;101871.52;110139;1251;20791;-40
2023/05/07 07:36:58;;;;;;;;;10.00;10.00;;;;;21.80;43.00;101874.82;110143;1251;19658;-42
2023/05/07 07:39:25;;;;;;;;;10.00;10.00;;;;;21.69;41.82;101873.52;110155;1251;20254;-44
2023/05/07 07:41:52;;;;;;;;;9.00;9.00;;;;;21.64;41.50;101871.75;110186;1251;20776;-42
2023/05/07 07:44:21;;;;;;;;;11.00;10.00;;;;;21.62;40.90;101874.64;110217;1266;18874;-44
2023/05/07 07:46:48;;;;;;;;;11.00;11.00;;;;;21.58;40.38;101870.65;110222;1250;20064;-41
2023/05/07 07:49:15;;;;;;;;;10.00;9.00;;;;;21.48;39.60;101873.34;110227;1251;22078;-42
2023/05/07 07:51:42;;;;;;;;;10.50;9.00;;;;;21.43;39.25;101875.30;110230;1251;20109;-42
2023/05/07 07:54:10;;;;;;;;;13.00;10.00;;;;;21.47;39.16;101875.44;110196;1266;18754;-41
2023/05/07 07:56:37;;;;;;;;;8.00;8.00;;;;;21.47;38.63;101876.36;110203;1266;22765;-42
2023/05/07 07:59:04;;;;;;;;;11.00;10.50;;;;;21.49;38.50;101875.02;110218;1251;19883;-42
2023/05/07 08:01:32;;;;;;;;;10.00;8.00;;;;;21.49;38.15;101875.05;110165;1251;22280;-41
2023/05/07 08:03:59;;;;;;;;;11.00;11.00;;;;;21.50;38.22;101881.98;110098;1251;20675;-42
2023/05/07 08:06:27;;;;;;;;;11.00;8.00;;;;;21.42;38.08;101875.90;110077;1265;18561;-40
2023/05/07 08:08:54;;;;;;;;;10.00;10.00;;;;;21.37;37.67;101876.42;110118;1251;20127;-40
2023/05/07 08:11:22;;;;;;;;;13.00;10.50;;;;;21.20;37.21;101887.68;110109;1265;20943;-39
2023/05/07 08:13:49;;;;;;;;;13.50;13.00;;;;;21.10;37.14;101884.18;110123;1251;20121;-41
2023/05/07 08:16:17;;;;;;;;;10.00;10.00;;;;;21.21;36.96;101886.96;110211;1266;18871;-42
2023/05/07 08:18:44;;;;;;;;;11.00;11.00;;;;;21.27;36.86;101889.39;110233;1265;19664;-41
2023/05/07 08:21:11;;;;;;;;;13.00;10.00;;;;;21.10;36.57;101887.83;110245;1265;23010;-41
2023/05/07 08:23:39;;;;;;;;;10.50;10.00;;;;;21.03;36.25;101888.13;110213;1265;22824;-41
2023/05/07 08:26:06;;;;;;;;;16.00;11.00;;;;;20.84;36.13;101889.10;110223;1257;22968;-41
2023/05/07 08:28:34;;;;;;;;;13.00;10.00;;;;;20.85;36.01;101891.55;110214;1251;20145;-41
2023/05/07 08:31:01;;;;;;;;;11.00;10.00;;;;;20.86;35.86;101901.96;110255;1250;20116;-42
2023/05/07 08:33:28;;;;;;;;;10.00;10.00;;;;;20.64;35.52;101899.75;110252;1251;22180;-41
2023/05/07 08:35:56;;;;;;;;;11.00;10.50;;;;;20.49;35.25;101899.23;110225;1251;20001;-41
2023/05/07 08:38:23;;;;;;;;;9.00;7.50;;;;;20.41;35.21;101897.04;110254;1265;18908;-40
2023/05/07 08:40:50;;;;;;;;;8.00;8.00;;;;;20.24;34.87;101899.90;110264;1265;21893;-40
2023/05/07 08:43:18;;;;;;;;;9.00;9.00;;;;;20.21;34.75;101901.88;110175;1265;18192;-43
2023/05/07 08:45:45;;;;;;;;;7.00;7.00;;;;;20.26;34.70;101903.56;110145;1250;19907;-44
2023/05/07 08:48:12;;;;;;;;;9.50;8.00;;;;;20.24;34.62;101904.98;110254;1251;21970;-43
2023/05/07 08:50:40;;;;;;;;;9.50;9.50;;;;;20.33;34.57;101906.90;110174;1251;19772;-42
2023/05/07 08:53:07;;;;;;;;;9.00;9.00;;;;;20.37;34.46;101906.70;110166;1251;20231;-43
2023/05/07 08:55:34;;;;;;;;;7.00;7.00;;;;;20.42;34.44;101911.63;110164;1265;22670;-41
2023/05/07 08:58:02;;;;;;;;;9.33;9.33;;;;;20.50;34.21;101919.44;110157;1259;18323;-42
2023/05/07 09:00:29;;;;;;;;;8.33;7.67;;;;;20.54;34.44;101911.83;110226;1265;18612;-43
2023/05/07 09:02:57;;;;;;;;;9.00;9.00;;;;;20.60;34.41;101908.54;110248;1251;20715;-43
2023/05/07 09:05:24;;;;;;;;;13.00;10.00;;;;;20.44;34.36;101914.03;110256;1260;19533;-42
2023/05/07 09:07:52;;;;;;;;;9.00;9.00;;;;;20.33;34.46;101921.27;110242;1250;18708;-41
2023/05/07 09:10:19;;;;;;;;;9.00;9.00;;;;;20.19;34.38;101926.74;110242;1251;22152;-41
2023/05/07 09:12:46;;;;;;;;;12.00;7.00;;;;;19.93;34.60;101934.27;110250;1251;19679;-42
2023/05/07 09:15:14;;;;;;;;;10.00;9.00;;;;;19.91;34.58;101928.99;110215;1265;18636;-42
2023/05/07 09:17:42;;;;;;;;;9.00;9.00;;;;;19.96;34.52;101932.38;110254;1261;20747;-41
2023/05/07 09:20:09;;;;;;;;;10.00;9.33;;;;;19.89;34.34;101939.01;110231;1260;20004;-42
2023/05/07 09:22:36;;;;;;;;;7.00;7.00;;;;;19.77;34.40;101937.52;110198;1265;19097;-41
2023/05/07 09:25:04;;;;;;;;;9.00;8.00;;;;;19.84;34.52;101931.42;110247;1251;20797;-41
2023/05/07 09:27:31;;;;;;;;;10.00;8.33;;;;;19.94;34.34;101934.70;110249;1251;19734;-41
2023/05/07 09:29:59;;;;;;;;;10.00;9.00;;;;;20.19;34.19;101929.50;110248;1265;18657;-41
2023/05/07 09:32:27;;;;;;;;;10.00;9.00;;;;;20.03;34.13;101930.96;110148;1265;22655;-45
2023/05/07 09:34:54;;;;;;;;;11.00;10.00;;;;;20.03;33.96;101930.66;110208;1265;23010;-42
2023/05/07 09:37:22;;;;;;;;;7.00;6.00;;;;;19.68;34.24;101924.27;110200;1251;20346;-41
2023/05/07 09:39:49;;;;;;;;;10.00;10.00;;;;;19.66;34.43;101938.62;110258;1251;19452;-42
2023/05/07 09:42:16;;;;;;;;;12.00;10.00;;;;;19.80;34.32;101932.15;110220;1251;21408;-42
2023/05/07 09:44:43;;;;;;;;;11.00;10.00;;;;;19.91;34.01;101930.99;110220;1260;20000;-42
2023/05/07 09:47:11;;;;;;;;;9.67;9.00;;;;;19.82;34.00;101933.85;110219;1251;19290;-44
2023/05/07 09:49:38;;;;;;;;;10.00;10.00;;;;;20.09;34.16;101930.73;110250;1250;22181;-41
2023/05/07 09:52:08;;;;;;;;;10.00;9.00;;;;;20.11;33.87;101938.77;110240;1265;18780;-42
2023/05/07 09:54:37;;;;;;;;;11.00;9.50;;;;;19.94;33.88;101940.27;110257;1250;22731;-43
2023/05/07 09:57:05;;;;;;;;;9.50;9.00;;;;;19.96;33.79;101939.19;110290;1251;20047;-42
2023/05/07 09:59:32;;;;;;;;;9.50;9.00;;;;;20.12;33.74;101936.67;110235;1265;18516;-42
2023/05/07 10:01:59;;;;;;;;;9.00;9.00;;;;;20.06;33.65;101936.50;110146;1265;20590;-42
2023/05/07 10:04:27;;;;;;;;;10.00;9.00;;;;;20.08;33.79;101935.98;110218;1251;19590;-42
2023/05/07 10:06:55;;;;;;;;;12.00;10.00;;;;;20.05;33.77;101936.96;110216;1265;19018;-42
2023/05/07 10:09:22;;;;;;;;;7.00;7.00;;;;;19.86;33.93;101937.47;110196;1265;19349;-41
2023/05/07 10:11:49;;;;;;;;;10.00;9.00;;;;;19.85;33.91;101937.51;110166;1265;18573;-42
2023/05/07 10:14:17;;;;;;;;;10.00;10.00;;;;;19.51;33.57;101946.98;110186;1265;18709;-43
2023/05/07 10:16:44;;;;;;;;;7.00;7.00;;;;;19.59;33.71;101940.33;110208;1251;20787;-42
2023/05/07 10:19:11;;;;;;;;;9.00;9.00;;;;;19.57;33.88;101935.93;110218;1261;19949;-46
2023/05/07 10:21:39;;;;;;;;;9.00;9.00;;;;;19.68;33.90;101937.86;110220;1265;20241;-41
2023/05/07 10:24:08;;;;;;;;;12.00;9.50;;;;;19.90;33.82;101934.85;110207;1251;23379;-42
2023/05/07 10:26:35;;;;;;;;;10.00;10.00;;;;;19.85;33.86;101945.65;110226;1265;19637;-42
2023/05/07 10:29:03;;;;;;;;;9.00;9.00;;;;;19.84;33.75;101941.27;110212;1249;18746;-42
2023/05/07 10:31:30;;;;;;;;;10.00;10.00;;;;;19.82;33.77;101942.52;110235;1251;20958;-42
2023/05/07 10:33:58;;;;;;;;;11.00;9.00;;;;;19.56;34.10;101944.73;110259;1251;19649;-42
2023/05/07 10:36:26;;;;;;;;;11.00;9.50;;;;;19.75;33.92;101943.95;110223;1251;20084;-43
2023/05/07 10:38:53;;;;;;;;;13.00;10.00;;;;;19.93;33.88;101940.61;110225;1250;20801;-42
2023/05/07 10:41:20;;;;;;;;;10.00;9.00;;;;;19.73;33.79;101942.60;110221;1265;18838;-41
2023/05/07 10:43:48;;;;;;;;;10.00;9.00;;;;;19.76;33.90;101934.97;110228;1251;22740;-42
2023/05/07 10:46:15;;;;;;;;;12.00;10.00;;;;;19.82;33.97;101940.73;110222;1261;20540;-41
2023/05/07 10:48:42;;;;;;;;;10.00;9.00;;;;;20.02;34.06;101938.73;110197;1265;22213;-42
2023/05/07 10:51:10;;;;;;;;;13.00;12.00;;;;;20.12;34.53;101936.44;110220;1257;19779;-41
2023/05/07 10:53:37;;;;;;;;;10.00;10.00;;;;;20.09;34.31;101940.95;110212;1265;20773;-42
2023/05/07 10:56:04;;;;;;;;;10.00;9.50;;;;;19.91;34.41;101937.15;110213;1265;20007;-41
2023/05/07 10:58:33;;;;;;;;;9.00;7.00;;;;;20.03;34.43;101939.15;110242;1265;18699;-42
2023/05/07 11:01:00;;;;;;;;;9.00;7.00;;;;;20.27;34.71;101937.27;110255;1250;20581;-41
2023/05/07 11:03:27;;;;;;;;;7.00;7.00;;;;;20.44;34.34;101933.63;110204;1265;18442;-45
2023/05/07 11:05:55;;;;;;;;;9.00;7.00;;;;;20.46;34.70;101927.09;110263;1251;20389;-42
2023/05/07 11:08:22;;;;;;;;;7.00;7.00;;;;;20.41;34.45;101928.27;110231;1265;19315;-42
2023/05/07 11:10:50;;;;;;;;;7.00;7.00;;;;;20.19;34.32;101936.34;110167;1265;22240;-42
2023/05/07 11:13:17;;;;;;;;;7.00;7.00;;;;;19.94;34.00;101933.98;110163;1251;19961;-45
2023/05/07 11:15:45;;;;;;;;;7.00;7.00;;;;;19.99;33.73;101931.34;110231;1251;20775;-41